sensor_id;sensor_type;location;lat;lon;timestamp;P1;durP1;ratioP1;P2;durP2;ratioP2
11535;SDS011;5824;49.336;8.652;2024-03-22T00:01:42;10.60;;;6.50;;
11535;SDS011;5824;49.336;8.652;2024-03-22T00:04:07;9.93;;;6.30;;
11535;SDS011;5824;49.336;8.652;2024-03-22T00:06:33;9.83;;;6.00;;
11535;SDS011;5824;49.336;8.652;2024-03-22T00:08:58;11.80;;;6.43;;
11535;SDS011;5824;49.336;8.652;2024-03-22T00:11:24;8.57;;;5.97;;
11535;SDS011;5824;49.336;8.652;2024-03-22T00:13:49;10.00;;;6.37;;
11535;SDS011;5824;49.336;8.652;2024-03-22T00:16:15;9.07;;;6.23;;
11535;SDS011;5824;49.336;8.652;2024-03-22T00:18:40;7.33;;;5.20;;
11535;SDS011;5824;49.336;8.652;2024-03-22T00:21:06;7.27;;;5.10;;
11535;SDS011;5824;49.336;8.652;2024-03-22T00:23:31;10.83;;;5.80;;
11535;SDS011;5824;49.336;8.652;2024-03-22T00:25:57;8.13;;;5.60;;
11535;SDS011;5824;49.336;8.652;2024-03-22T00:28:22;10.27;;;5.50;;
11535;SDS011;5824;49.336;8.652;2024-03-22T00:30:48;8.80;;;6.00;;
11535;SDS011;5824;49.336;8.652;2024-03-22T00:33:13;9.87;;;6.47;;
11535;SDS011;5824;49.336;8.652;2024-03-22T00:35:39;9.40;;;6.30;;
11535;SDS011;5824;49.336;8.652;2024-03-22T00:38:04;12.03;;;6.80;;
11535;SDS011;5824;49.336;8.652;2024-03-22T00:40:30;15.77;;;6.87;;
11535;SDS011;5824;49.336;8.652;2024-03-22T00:42:55;10.17;;;6.30;;
11535;SDS011;5824;49.336;8.652;2024-03-22T00:45:21;11.90;;;6.57;;
11535;SDS011;5824;49.336;8.652;2024-03-22T00:47:46;7.67;;;5.60;;
11535;SDS011;5824;49.336;8.652;2024-03-22T00:50:12;11.57;;;6.67;;
11535;SDS011;5824;49.336;8.652;2024-03-22T00:52:37;12.50;;;6.73;;
11535;SDS011;5824;49.336;8.652;2024-03-22T00:55:04;9.13;;;6.50;;
11535;SDS011;5824;49.336;8.652;2024-03-22T00:57:30;12.87;;;7.20;;
11535;SDS011;5824;49.336;8.652;2024-03-22T00:59:56;11.17;;;6.27;;
11535;SDS011;5824;49.336;8.652;2024-03-22T01:02:21;11.00;;;7.40;;
11535;SDS011;5824;49.336;8.652;2024-03-22T01:04:47;11.70;;;7.27;;
11535;SDS011;5824;49.336;8.652;2024-03-22T01:07:13;11.50;;;6.63;;
11535;SDS011;5824;49.336;8.652;2024-03-22T01:09:38;12.57;;;7.70;;
11535;SDS011;5824;49.336;8.652;2024-03-22T01:12:04;10.40;;;6.83;;
11535;SDS011;5824;49.336;8.652;2024-03-22T01:14:30;10.50;;;6.70;;
11535;SDS011;5824;49.336;8.652;2024-03-22T01:16:56;10.97;;;6.57;;
11535;SDS011;5824;49.336;8.652;2024-03-22T01:19:21;9.50;;;6.50;;
11535;SDS011;5824;49.336;8.652;2024-03-22T01:21:47;12.30;;;7.70;;
11535;SDS011;5824;49.336;8.652;2024-03-22T01:24:13;11.40;;;6.90;;
11535;SDS011;5824;49.336;8.652;2024-03-22T01:26:39;9.93;;;6.73;;
11535;SDS011;5824;49.336;8.652;2024-03-22T01:29:04;13.80;;;7.77;;
11535;SDS011;5824;49.336;8.652;2024-03-22T01:31:30;14.77;;;7.83;;
11535;SDS011;5824;49.336;8.652;2024-03-22T01:33:55;19.03;;;7.40;;
11535;SDS011;5824;49.336;8.652;2024-03-22T01:36:21;11.50;;;7.17;;
11535;SDS011;5824;49.336;8.652;2024-03-22T01:38:46;15.57;;;7.40;;
11535;SDS011;5824;49.336;8.652;2024-03-22T01:41:12;13.00;;;7.00;;
11535;SDS011;5824;49.336;8.652;2024-03-22T01:43:37;9.60;;;6.07;;
11535;SDS011;5824;49.336;8.652;2024-03-22T01:46:03;8.10;;;5.93;;
11535;SDS011;5824;49.336;8.652;2024-03-22T01:48:29;10.27;;;6.73;;
11535;SDS011;5824;49.336;8.652;2024-03-22T01:50:55;9.57;;;6.47;;
11535;SDS011;5824;49.336;8.652;2024-03-22T01:53:22;12.20;;;7.30;;
11535;SDS011;5824;49.336;8.652;2024-03-22T01:55:48;12.50;;;7.20;;
11535;SDS011;5824;49.336;8.652;2024-03-22T01:58:13;14.40;;;7.30;;
11535;SDS011;5824;49.336;8.652;2024-03-22T02:00:39;15.33;;;7.87;;
11535;SDS011;5824;49.336;8.652;2024-03-22T02:03:04;14.70;;;7.33;;
11535;SDS011;5824;49.336;8.652;2024-03-22T02:05:30;12.50;;;7.00;;
11535;SDS011;5824;49.336;8.652;2024-03-22T02:07:56;15.07;;;7.90;;
11535;SDS011;5824;49.336;8.652;2024-03-22T02:10:21;11.93;;;6.87;;
11535;SDS011;5824;49.336;8.652;2024-03-22T02:12:47;11.40;;;7.37;;
11535;SDS011;5824;49.336;8.652;2024-03-22T02:15:12;10.27;;;7.10;;
11535;SDS011;5824;49.336;8.652;2024-03-22T02:17:38;13.47;;;7.70;;
11535;SDS011;5824;49.336;8.652;2024-03-22T02:20:03;11.10;;;7.70;;
11535;SDS011;5824;49.336;8.652;2024-03-22T02:22:29;13.63;;;6.43;;
11535;SDS011;5824;49.336;8.652;2024-03-22T02:24:55;14.00;;;7.40;;
11535;SDS011;5824;49.336;8.652;2024-03-22T02:27:21;11.57;;;6.60;;
11535;SDS011;5824;49.336;8.652;2024-03-22T02:29:46;12.10;;;7.30;;
11535;SDS011;5824;49.336;8.652;2024-03-22T02:32:12;12.20;;;6.87;;
11535;SDS011;5824;49.336;8.652;2024-03-22T02:34:37;12.30;;;7.90;;
11535;SDS011;5824;49.336;8.652;2024-03-22T02:37:03;19.60;;;8.73;;
11535;SDS011;5824;49.336;8.652;2024-03-22T02:39:28;13.50;;;7.50;;
11535;SDS011;5824;49.336;8.652;2024-03-22T02:41:54;13.40;;;7.80;;
11535;SDS011;5824;49.336;8.652;2024-03-22T02:44:20;10.83;;;7.03;;
11535;SDS011;5824;49.336;8.652;2024-03-22T02:46:45;11.37;;;7.17;;
11535;SDS011;5824;49.336;8.652;2024-03-22T02:49:11;9.90;;;6.97;;
11535;SDS011;5824;49.336;8.652;2024-03-22T02:51:37;12.00;;;6.87;;
11535;SDS011;5824;49.336;8.652;2024-03-22T02:54:03;9.70;;;6.50;;
11535;SDS011;5824;49.336;8.652;2024-03-22T02:56:29;13.73;;;6.27;;
11535;SDS011;5824;49.336;8.652;2024-03-22T02:58:55;10.53;;;6.87;;
11535;SDS011;5824;49.336;8.652;2024-03-22T03:01:20;10.20;;;7.03;;
11535;SDS011;5824;49.336;8.652;2024-03-22T03:03:46;11.07;;;6.20;;
11535;SDS011;5824;49.336;8.652;2024-03-22T03:06:11;12.03;;;6.93;;
11535;SDS011;5824;49.336;8.652;2024-03-22T03:08:41;13.33;;;6.57;;
11535;SDS011;5824;49.336;8.652;2024-03-22T03:11:07;12.67;;;7.80;;
11535;SDS011;5824;49.336;8.652;2024-03-22T03:13:32;10.53;;;6.60;;
11535;SDS011;5824;49.336;8.652;2024-03-22T03:15:58;12.27;;;6.73;;
11535;SDS011;5824;49.336;8.652;2024-03-22T03:18:23;11.10;;;6.70;;
11535;SDS011;5824;49.336;8.652;2024-03-22T03:20:49;13.73;;;6.40;;
11535;SDS011;5824;49.336;8.652;2024-03-22T03:23:14;12.00;;;7.17;;
11535;SDS011;5824;49.336;8.652;2024-03-22T03:25:40;12.37;;;6.80;;
11535;SDS011;5824;49.336;8.652;2024-03-22T03:28:05;10.83;;;6.67;;
11535;SDS011;5824;49.336;8.652;2024-03-22T03:30:32;12.30;;;7.27;;
11535;SDS011;5824;49.336;8.652;2024-03-22T03:32:59;13.10;;;7.10;;
11535;SDS011;5824;49.336;8.652;2024-03-22T03:35:24;10.57;;;6.93;;
11535;SDS011;5824;49.336;8.652;2024-03-22T03:37:50;8.43;;;6.00;;
11535;SDS011;5824;49.336;8.652;2024-03-22T03:40:16;13.43;;;7.10;;
11535;SDS011;5824;49.336;8.652;2024-03-22T03:42:41;10.13;;;6.30;;
11535;SDS011;5824;49.336;8.652;2024-03-22T03:45:07;10.70;;;6.67;;
11535;SDS011;5824;49.336;8.652;2024-03-22T03:47:33;10.13;;;6.87;;
11535;SDS011;5824;49.336;8.652;2024-03-22T03:49:59;10.57;;;6.30;;
11535;SDS011;5824;49.336;8.652;2024-03-22T03:52:24;9.87;;;6.67;;
11535;SDS011;5824;49.336;8.652;2024-03-22T03:54:50;9.87;;;6.30;;
11535;SDS011;5824;49.336;8.652;2024-03-22T03:57:15;9.00;;;6.30;;
11535;SDS011;5824;49.336;8.652;2024-03-22T03:59:41;13.53;;;7.30;;
11535;SDS011;5824;49.336;8.652;2024-03-22T04:02:06;13.20;;;7.13;;
11535;SDS011;5824;49.336;8.652;2024-03-22T04:04:32;15.83;;;7.00;;
11535;SDS011;5824;49.336;8.652;2024-03-22T04:06:57;11.83;;;6.60;;
11535;SDS011;5824;49.336;8.652;2024-03-22T04:09:23;10.10;;;6.40;;
11535;SDS011;5824;49.336;8.652;2024-03-22T04:11:48;9.50;;;6.00;;
11535;SDS011;5824;49.336;8.652;2024-03-22T04:14:14;12.30;;;6.30;;
11535;SDS011;5824;49.336;8.652;2024-03-22T04:16:39;12.53;;;6.97;;
11535;SDS011;5824;49.336;8.652;2024-03-22T04:19:05;11.67;;;6.30;;
11535;SDS011;5824;49.336;8.652;2024-03-22T04:21:31;10.37;;;6.47;;
11535;SDS011;5824;49.336;8.652;2024-03-22T04:23:56;10.67;;;6.10;;
11535;SDS011;5824;49.336;8.652;2024-03-22T04:26:22;12.40;;;6.73;;
11535;SDS011;5824;49.336;8.652;2024-03-22T04:28:48;11.43;;;5.30;;
11535;SDS011;5824;49.336;8.652;2024-03-22T04:31:14;8.63;;;5.63;;
11535;SDS011;5824;49.336;8.652;2024-03-22T04:33:40;9.40;;;5.43;;
11535;SDS011;5824;49.336;8.652;2024-03-22T04:36:06;9.10;;;6.27;;
11535;SDS011;5824;49.336;8.652;2024-03-22T04:38:34;12.20;;;6.30;;
11535;SDS011;5824;49.336;8.652;2024-03-22T04:40:59;10.67;;;6.20;;
11535;SDS011;5824;49.336;8.652;2024-03-22T04:43:26;10.47;;;6.17;;
11535;SDS011;5824;49.336;8.652;2024-03-22T04:45:52;9.10;;;5.97;;
11535;SDS011;5824;49.336;8.652;2024-03-22T04:48:19;8.30;;;5.70;;
11535;SDS011;5824;49.336;8.652;2024-03-22T04:50:46;9.00;;;5.90;;
11535;SDS011;5824;49.336;8.652;2024-03-22T04:53:14;8.90;;;5.60;;
11535;SDS011;5824;49.336;8.652;2024-03-22T04:55:42;10.87;;;6.23;;
11535;SDS011;5824;49.336;8.652;2024-03-22T04:58:11;11.30;;;6.83;;
11535;SDS011;5824;49.336;8.652;2024-03-22T05:00:37;15.40;;;6.10;;
11535;SDS011;5824;49.336;8.652;2024-03-22T05:03:03;8.90;;;5.77;;
11535;SDS011;5824;49.336;8.652;2024-03-22T05:05:28;9.67;;;6.57;;
11535;SDS011;5824;49.336;8.652;2024-03-22T05:07:54;9.07;;;5.93;;
11535;SDS011;5824;49.336;8.652;2024-03-22T05:10:19;13.97;;;6.70;;
11535;SDS011;5824;49.336;8.652;2024-03-22T05:12:45;12.40;;;6.20;;
11535;SDS011;5824;49.336;8.652;2024-03-22T05:15:10;11.40;;;6.40;;
11535;SDS011;5824;49.336;8.652;2024-03-22T05:17:36;12.27;;;6.30;;
11535;SDS011;5824;49.336;8.652;2024-03-22T05:20:01;21.60;;;5.70;;
11535;SDS011;5824;49.336;8.652;2024-03-22T05:22:27;10.87;;;5.60;;
11535;SDS011;5824;49.336;8.652;2024-03-22T05:24:53;10.67;;;6.83;;
11535;SDS011;5824;49.336;8.652;2024-03-22T05:27:19;13.30;;;5.90;;
11535;SDS011;5824;49.336;8.652;2024-03-22T05:29:44;11.83;;;6.10;;
11535;SDS011;5824;49.336;8.652;2024-03-22T05:32:10;10.10;;;6.13;;
11535;SDS011;5824;49.336;8.652;2024-03-22T05:34:35;9.73;;;6.03;;
11535;SDS011;5824;49.336;8.652;2024-03-22T05:37:01;10.13;;;5.70;;
11535;SDS011;5824;49.336;8.652;2024-03-22T05:39:27;9.70;;;6.10;;
11535;SDS011;5824;49.336;8.652;2024-03-22T05:41:53;10.47;;;6.50;;
11535;SDS011;5824;49.336;8.652;2024-03-22T05:44:19;11.83;;;6.20;;
11535;SDS011;5824;49.336;8.652;2024-03-22T05:46:46;9.33;;;6.50;;
11535;SDS011;5824;49.336;8.652;2024-03-22T05:49:12;11.07;;;6.67;;
11535;SDS011;5824;49.336;8.652;2024-03-22T05:51:37;11.50;;;6.40;;
11535;SDS011;5824;49.336;8.652;2024-03-22T05:54:03;9.93;;;6.70;;
11535;SDS011;5824;49.336;8.652;2024-03-22T05:56:28;10.23;;;5.93;;
11535;SDS011;5824;49.336;8.652;2024-03-22T05:58:54;14.20;;;6.30;;
11535;SDS011;5824;49.336;8.652;2024-03-22T06:01:19;13.47;;;6.37;;
11535;SDS011;5824;49.336;8.652;2024-03-22T06:03:45;11.17;;;6.67;;
11535;SDS011;5824;49.336;8.652;2024-03-22T06:06:10;8.80;;;5.83;;
11535;SDS011;5824;49.336;8.652;2024-03-22T06:08:37;8.93;;;5.63;;
11535;SDS011;5824;49.336;8.652;2024-03-22T06:11:04;11.20;;;5.90;;
11535;SDS011;5824;49.336;8.652;2024-03-22T06:13:32;9.13;;;6.00;;
11535;SDS011;5824;49.336;8.652;2024-03-22T06:15:58;10.20;;;6.37;;
11535;SDS011;5824;49.336;8.652;2024-03-22T06:18:23;10.53;;;6.23;;
11535;SDS011;5824;49.336;8.652;2024-03-22T06:20:49;10.20;;;5.90;;
11535;SDS011;5824;49.336;8.652;2024-03-22T06:23:14;9.80;;;6.30;;
11535;SDS011;5824;49.336;8.652;2024-03-22T06:25:40;9.77;;;6.23;;
11535;SDS011;5824;49.336;8.652;2024-03-22T06:28:05;11.40;;;7.07;;
11535;SDS011;5824;49.336;8.652;2024-03-22T06:30:31;10.73;;;6.47;;
11535;SDS011;5824;49.336;8.652;2024-03-22T06:32:56;9.33;;;6.60;;
11535;SDS011;5824;49.336;8.652;2024-03-22T06:35:22;11.73;;;7.53;;
11535;SDS011;5824;49.336;8.652;2024-03-22T06:37:47;10.43;;;6.90;;
11535;SDS011;5824;49.336;8.652;2024-03-22T06:40:18;12.50;;;7.33;;
11535;SDS011;5824;49.336;8.652;2024-03-22T06:42:43;13.80;;;7.70;;
11535;SDS011;5824;49.336;8.652;2024-03-22T06:45:09;10.73;;;7.23;;
11535;SDS011;5824;49.336;8.652;2024-03-22T06:47:34;10.50;;;7.27;;
11535;SDS011;5824;49.336;8.652;2024-03-22T06:50:00;12.13;;;7.77;;
11535;SDS011;5824;49.336;8.652;2024-03-22T06:52:26;10.77;;;7.17;;
11535;SDS011;5824;49.336;8.652;2024-03-22T06:54:51;10.43;;;6.87;;
11535;SDS011;5824;49.336;8.652;2024-03-22T06:57:18;11.50;;;7.57;;
11535;SDS011;5824;49.336;8.652;2024-03-22T06:59:43;12.20;;;6.93;;
11535;SDS011;5824;49.336;8.652;2024-03-22T07:02:09;13.30;;;7.87;;
11535;SDS011;5824;49.336;8.652;2024-03-22T07:04:35;10.93;;;7.00;;
11535;SDS011;5824;49.336;8.652;2024-03-22T07:07:00;12.70;;;7.77;;
11535;SDS011;5824;49.336;8.652;2024-03-22T07:09:26;11.30;;;7.60;;
11535;SDS011;5824;49.336;8.652;2024-03-22T07:11:54;10.27;;;6.90;;
11535;SDS011;5824;49.336;8.652;2024-03-22T07:14:20;11.63;;;8.03;;
11535;SDS011;5824;49.336;8.652;2024-03-22T07:16:45;12.17;;;6.87;;
11535;SDS011;5824;49.336;8.652;2024-03-22T07:19:11;8.93;;;6.90;;
11535;SDS011;5824;49.336;8.652;2024-03-22T07:21:37;11.10;;;7.90;;
11535;SDS011;5824;49.336;8.652;2024-03-22T07:24:03;14.27;;;8.50;;
11535;SDS011;5824;49.336;8.652;2024-03-22T07:26:29;13.00;;;8.20;;
11535;SDS011;5824;49.336;8.652;2024-03-22T07:28:55;14.87;;;9.90;;
11535;SDS011;5824;49.336;8.652;2024-03-22T07:31:21;15.50;;;10.10;;
11535;SDS011;5824;49.336;8.652;2024-03-22T07:33:46;13.43;;;10.20;;
11535;SDS011;5824;49.336;8.652;2024-03-22T07:36:12;14.93;;;10.20;;
11535;SDS011;5824;49.336;8.652;2024-03-22T07:38:40;14.07;;;10.17;;
11535;SDS011;5824;49.336;8.652;2024-03-22T07:41:05;13.30;;;9.37;;
11535;SDS011;5824;49.336;8.652;2024-03-22T07:43:31;12.37;;;9.23;;
11535;SDS011;5824;49.336;8.652;2024-03-22T07:45:56;17.87;;;9.50;;
11535;SDS011;5824;49.336;8.652;2024-03-22T07:48:22;15.13;;;10.57;;
11535;SDS011;5824;49.336;8.652;2024-03-22T07:50:55;13.80;;;9.80;;
11535;SDS011;5824;49.336;8.652;2024-03-22T07:53:24;12.70;;;9.27;;
11535;SDS011;5824;49.336;8.652;2024-03-22T07:55:50;14.67;;;9.60;;
11535;SDS011;5824;49.336;8.652;2024-03-22T07:58:15;13.83;;;9.97;;
11535;SDS011;5824;49.336;8.652;2024-03-22T08:00:41;13.10;;;9.13;;
11535;SDS011;5824;49.336;8.652;2024-03-22T08:03:07;12.27;;;9.30;;
11535;SDS011;5824;49.336;8.652;2024-03-22T08:05:33;11.87;;;8.83;;
11535;SDS011;5824;49.336;8.652;2024-03-22T08:07:58;11.80;;;9.20;;
11535;SDS011;5824;49.336;8.652;2024-03-22T08:10:24;14.30;;;8.97;;
11535;SDS011;5824;49.336;8.652;2024-03-22T08:12:49;13.53;;;8.27;;
11535;SDS011;5824;49.336;8.652;2024-03-22T08:15:15;10.87;;;8.50;;
11535;SDS011;5824;49.336;8.652;2024-03-22T08:17:40;11.60;;;8.20;;
11535;SDS011;5824;49.336;8.652;2024-03-22T08:20:06;13.23;;;8.83;;
11535;SDS011;5824;49.336;8.652;2024-03-22T08:22:32;13.20;;;8.60;;
11535;SDS011;5824;49.336;8.652;2024-03-22T08:24:57;10.37;;;8.30;;
11535;SDS011;5824;49.336;8.652;2024-03-22T08:27:23;11.63;;;8.27;;
11535;SDS011;5824;49.336;8.652;2024-03-22T08:29:49;11.90;;;8.10;;
11535;SDS011;5824;49.336;8.652;2024-03-22T08:32:15;13.17;;;7.83;;
11535;SDS011;5824;49.336;8.652;2024-03-22T08:34:40;12.47;;;7.90;;
11535;SDS011;5824;49.336;8.652;2024-03-22T08:37:06;11.70;;;8.07;;
11535;SDS011;5824;49.336;8.652;2024-03-22T08:39:32;11.73;;;7.80;;
11535;SDS011;5824;49.336;8.652;2024-03-22T08:41:58;11.37;;;8.10;;
11535;SDS011;5824;49.336;8.652;2024-03-22T08:44:23;10.37;;;7.13;;
11535;SDS011;5824;49.336;8.652;2024-03-22T08:46:49;8.67;;;6.53;;
11535;SDS011;5824;49.336;8.652;2024-03-22T08:49:14;9.70;;;7.30;;
11535;SDS011;5824;49.336;8.652;2024-03-22T08:51:40;10.30;;;6.97;;
11535;SDS011;5824;49.336;8.652;2024-03-22T08:54:06;9.97;;;6.83;;
11535;SDS011;5824;49.336;8.652;2024-03-22T08:56:32;10.43;;;7.07;;
11535;SDS011;5824;49.336;8.652;2024-03-22T08:58:58;11.90;;;7.27;;
11535;SDS011;5824;49.336;8.652;2024-03-22T09:01:24;12.43;;;7.10;;
11535;SDS011;5824;49.336;8.652;2024-03-22T09:03:49;9.73;;;7.33;;
11535;SDS011;5824;49.336;8.652;2024-03-22T09:06:16;10.27;;;7.57;;
11535;SDS011;5824;49.336;8.652;2024-03-22T09:08:41;11.80;;;7.77;;
11535;SDS011;5824;49.336;8.652;2024-03-22T09:11:07;13.33;;;7.70;;
11535;SDS011;5824;49.336;8.652;2024-03-22T09:13:32;12.30;;;7.47;;
11535;SDS011;5824;49.336;8.652;2024-03-22T09:16:00;12.40;;;7.47;;
11535;SDS011;5824;49.336;8.652;2024-03-22T09:18:27;9.70;;;6.70;;
11535;SDS011;5824;49.336;8.652;2024-03-22T09:20:53;11.03;;;7.10;;
11535;SDS011;5824;49.336;8.652;2024-03-22T09:23:19;9.83;;;7.40;;
11535;SDS011;5824;49.336;8.652;2024-03-22T09:25:45;10.77;;;6.93;;
11535;SDS011;5824;49.336;8.652;2024-03-22T09:28:12;12.20;;;6.70;;
11535;SDS011;5824;49.336;8.652;2024-03-22T09:30:38;9.77;;;6.60;;
11535;SDS011;5824;49.336;8.652;2024-03-22T09:33:05;11.73;;;7.00;;
11535;SDS011;5824;49.336;8.652;2024-03-22T09:35:33;10.33;;;7.33;;
11535;SDS011;5824;49.336;8.652;2024-03-22T09:37:59;14.47;;;7.40;;
11535;SDS011;5824;49.336;8.652;2024-03-22T09:40:24;11.43;;;7.07;;
11535;SDS011;5824;49.336;8.652;2024-03-22T09:42:50;9.30;;;7.10;;
11535;SDS011;5824;49.336;8.652;2024-03-22T09:45:18;9.47;;;6.53;;
11535;SDS011;5824;49.336;8.652;2024-03-22T09:47:45;11.60;;;6.90;;
11535;SDS011;5824;49.336;8.652;2024-03-22T09:50:12;11.60;;;7.10;;
11535;SDS011;5824;49.336;8.652;2024-03-22T09:52:38;10.50;;;6.57;;
11535;SDS011;5824;49.336;8.652;2024-03-22T09:55:05;11.90;;;6.50;;
11535;SDS011;5824;49.336;8.652;2024-03-22T09:57:31;13.43;;;6.73;;
11535;SDS011;5824;49.336;8.652;2024-03-22T10:00:02;10.60;;;6.20;;
11535;SDS011;5824;49.336;8.652;2024-03-22T10:02:31;11.47;;;7.10;;
11535;SDS011;5824;49.336;8.652;2024-03-22T10:04:57;9.90;;;6.80;;
11535;SDS011;5824;49.336;8.652;2024-03-22T10:07:23;8.70;;;5.87;;
11535;SDS011;5824;49.336;8.652;2024-03-22T10:09:51;11.27;;;6.50;;
11535;SDS011;5824;49.336;8.652;2024-03-22T10:12:16;12.10;;;6.20;;
11535;SDS011;5824;49.336;8.652;2024-03-22T10:14:43;8.40;;;5.70;;
11535;SDS011;5824;49.336;8.652;2024-03-22T10:17:09;8.93;;;6.03;;
11535;SDS011;5824;49.336;8.652;2024-03-22T10:19:35;10.80;;;6.70;;
11535;SDS011;5824;49.336;8.652;2024-03-22T10:22:02;10.47;;;6.27;;
11535;SDS011;5824;49.336;8.652;2024-03-22T10:24:29;11.30;;;7.87;;
11535;SDS011;5824;49.336;8.652;2024-03-22T10:26:55;11.07;;;6.70;;
11535;SDS011;5824;49.336;8.652;2024-03-22T10:29:21;12.60;;;6.87;;
11535;SDS011;5824;49.336;8.652;2024-03-22T10:31:47;9.57;;;6.30;;
11535;SDS011;5824;49.336;8.652;2024-03-22T10:34:14;9.13;;;6.47;;
11535;SDS011;5824;49.336;8.652;2024-03-22T10:36:40;10.50;;;7.20;;
11535;SDS011;5824;49.336;8.652;2024-03-22T10:39:06;11.80;;;6.50;;
11535;SDS011;5824;49.336;8.652;2024-03-22T10:41:33;14.40;;;6.90;;
11535;SDS011;5824;49.336;8.652;2024-03-22T10:43:58;9.87;;;7.00;;
11535;SDS011;5824;49.336;8.652;2024-03-22T10:46:28;11.30;;;7.27;;
11535;SDS011;5824;49.336;8.652;2024-03-22T10:48:55;12.07;;;7.27;;
11535;SDS011;5824;49.336;8.652;2024-03-22T10:51:22;10.97;;;7.10;;
11535;SDS011;5824;49.336;8.652;2024-03-22T10:53:50;12.37;;;6.93;;
11535;SDS011;5824;49.336;8.652;2024-03-22T10:56:17;12.83;;;7.27;;
11535;SDS011;5824;49.336;8.652;2024-03-22T10:58:44;11.30;;;7.57;;
11535;SDS011;5824;49.336;8.652;2024-03-22T11:01:25;11.73;;;7.37;;
11535;SDS011;5824;49.336;8.652;2024-03-22T11:03:51;10.43;;;6.53;;
11535;SDS011;5824;49.336;8.652;2024-03-22T11:06:28;8.47;;;6.07;;
11535;SDS011;5824;49.336;8.652;2024-03-22T11:08:55;15.20;;;7.40;;
11535;SDS011;5824;49.336;8.652;2024-03-22T11:11:25;13.00;;;7.00;;
11535;SDS011;5824;49.336;8.652;2024-03-22T11:13:54;14.43;;;7.60;;
11535;SDS011;5824;49.336;8.652;2024-03-22T11:16:21;10.73;;;6.70;;
11535;SDS011;5824;49.336;8.652;2024-03-22T11:18:46;10.60;;;7.20;;
11535;SDS011;5824;49.336;8.652;2024-03-22T11:21:13;10.00;;;6.63;;
11535;SDS011;5824;49.336;8.652;2024-03-22T11:23:39;11.60;;;6.93;;
11535;SDS011;5824;49.336;8.652;2024-03-22T11:26:05;10.43;;;7.47;;
11535;SDS011;5824;49.336;8.652;2024-03-22T11:28:32;11.77;;;7.10;;
11535;SDS011;5824;49.336;8.652;2024-03-22T11:30:58;10.33;;;7.30;;
11535;SDS011;5824;49.336;8.652;2024-03-22T11:33:24;16.30;;;7.40;;
11535;SDS011;5824;49.336;8.652;2024-03-22T11:35:51;8.87;;;6.20;;
11535;SDS011;5824;49.336;8.652;2024-03-22T11:38:17;9.20;;;6.30;;
11535;SDS011;5824;49.336;8.652;2024-03-22T11:40:43;13.87;;;6.00;;
11535;SDS011;5824;49.336;8.652;2024-03-22T11:43:09;10.73;;;6.37;;
11535;SDS011;5824;49.336;8.652;2024-03-22T11:45:36;8.73;;;5.97;;
11535;SDS011;5824;49.336;8.652;2024-03-22T11:48:02;9.60;;;6.53;;
11535;SDS011;5824;49.336;8.652;2024-03-22T11:50:28;12.63;;;6.47;;
11535;SDS011;5824;49.336;8.652;2024-03-22T11:52:54;11.20;;;6.50;;
11535;SDS011;5824;49.336;8.652;2024-03-22T11:55:20;10.17;;;6.10;;
11535;SDS011;5824;49.336;8.652;2024-03-22T11:57:49;8.40;;;5.30;;
11535;SDS011;5824;49.336;8.652;2024-03-22T12:00:15;7.27;;;5.47;;
11535;SDS011;5824;49.336;8.652;2024-03-22T12:02:43;8.67;;;5.47;;
11535;SDS011;5824;49.336;8.652;2024-03-22T12:05:10;8.80;;;5.67;;
11535;SDS011;5824;49.336;8.652;2024-03-22T12:07:36;10.77;;;5.60;;
11535;SDS011;5824;49.336;8.652;2024-03-22T12:10:02;8.20;;;5.23;;
11535;SDS011;5824;49.336;8.652;2024-03-22T12:12:28;9.70;;;5.60;;
11535;SDS011;5824;49.336;8.652;2024-03-22T12:14:54;27.33;;;5.60;;
11535;SDS011;5824;49.336;8.652;2024-03-22T12:17:20;9.40;;;6.00;;
11535;SDS011;5824;49.336;8.652;2024-03-22T12:19:45;9.50;;;5.97;;
11535;SDS011;5824;49.336;8.652;2024-03-22T12:22:11;8.77;;;5.47;;
11535;SDS011;5824;49.336;8.652;2024-03-22T12:24:37;8.40;;;6.00;;
11535;SDS011;5824;49.336;8.652;2024-03-22T12:27:02;8.63;;;4.57;;
11535;SDS011;5824;49.336;8.652;2024-03-22T12:29:28;8.30;;;5.07;;
11535;SDS011;5824;49.336;8.652;2024-03-22T12:31:53;8.17;;;5.37;;
11535;SDS011;5824;49.336;8.652;2024-03-22T12:34:19;7.63;;;5.93;;
11535;SDS011;5824;49.336;8.652;2024-03-22T12:36:45;7.53;;;5.07;;
11535;SDS011;5824;49.336;8.652;2024-03-22T12:39:10;6.60;;;5.10;;
11535;SDS011;5824;49.336;8.652;2024-03-22T12:41:36;7.33;;;4.63;;
11535;SDS011;5824;49.336;8.652;2024-03-22T12:44:02;8.70;;;4.97;;
11535;SDS011;5824;49.336;8.652;2024-03-22T12:46:28;9.50;;;5.43;;
11535;SDS011;5824;49.336;8.652;2024-03-22T12:48:54;9.37;;;5.27;;
11535;SDS011;5824;49.336;8.652;2024-03-22T12:51:19;7.77;;;4.80;;
11535;SDS011;5824;49.336;8.652;2024-03-22T12:53:45;8.23;;;5.00;;
11535;SDS011;5824;49.336;8.652;2024-03-22T12:56:11;7.20;;;5.13;;
11535;SDS011;5824;49.336;8.652;2024-03-22T12:58:37;6.80;;;4.50;;
11535;SDS011;5824;49.336;8.652;2024-03-22T13:01:02;6.33;;;4.67;;
11535;SDS011;5824;49.336;8.652;2024-03-22T13:03:30;6.70;;;4.70;;
11535;SDS011;5824;49.336;8.652;2024-03-22T13:05:57;9.27;;;4.60;;
11535;SDS011;5824;49.336;8.652;2024-03-22T13:08:22;5.97;;;4.13;;
11535;SDS011;5824;49.336;8.652;2024-03-22T13:10:48;6.30;;;4.60;;
11535;SDS011;5824;49.336;8.652;2024-03-22T13:13:13;11.53;;;4.70;;
11535;SDS011;5824;49.336;8.652;2024-03-22T13:15:41;7.13;;;5.17;;
11535;SDS011;5824;49.336;8.652;2024-03-22T13:18:07;6.60;;;4.90;;
11535;SDS011;5824;49.336;8.652;2024-03-22T13:20:34;6.63;;;4.50;;
11535;SDS011;5824;49.336;8.652;2024-03-22T13:23:00;9.77;;;5.00;;
11535;SDS011;5824;49.336;8.652;2024-03-22T13:25:26;7.60;;;4.90;;
11535;SDS011;5824;49.336;8.652;2024-03-22T13:27:52;5.87;;;4.30;;
11535;SDS011;5824;49.336;8.652;2024-03-22T13:30:17;6.50;;;4.27;;
11535;SDS011;5824;49.336;8.652;2024-03-22T13:32:43;7.80;;;5.27;;
11535;SDS011;5824;49.336;8.652;2024-03-22T13:35:08;6.30;;;4.70;;
11535;SDS011;5824;49.336;8.652;2024-03-22T13:37:34;9.53;;;4.67;;
11535;SDS011;5824;49.336;8.652;2024-03-22T13:40:00;7.20;;;4.40;;
11535;SDS011;5824;49.336;8.652;2024-03-22T13:42:25;8.20;;;4.40;;
11535;SDS011;5824;49.336;8.652;2024-03-22T13:44:51;7.20;;;5.17;;
11535;SDS011;5824;49.336;8.652;2024-03-22T13:47:17;6.73;;;4.53;;
11535;SDS011;5824;49.336;8.652;2024-03-22T13:49:43;5.40;;;4.00;;
11535;SDS011;5824;49.336;8.652;2024-03-22T13:52:09;6.53;;;4.20;;
11535;SDS011;5824;49.336;8.652;2024-03-22T13:54:35;9.13;;;4.63;;
11535;SDS011;5824;49.336;8.652;2024-03-22T13:57:01;8.30;;;4.30;;
11535;SDS011;5824;49.336;8.652;2024-03-22T13:59:28;8.83;;;4.00;;
11535;SDS011;5824;49.336;8.652;2024-03-22T14:01:54;6.47;;;4.50;;
11535;SDS011;5824;49.336;8.652;2024-03-22T14:04:19;7.37;;;4.50;;
11535;SDS011;5824;49.336;8.652;2024-03-22T14:06:45;7.10;;;4.83;;
11535;SDS011;5824;49.336;8.652;2024-03-22T14:09:10;6.70;;;4.10;;
11535;SDS011;5824;49.336;8.652;2024-03-22T14:11:38;6.57;;;3.97;;
11535;SDS011;5824;49.336;8.652;2024-03-22T14:14:04;6.17;;;3.73;;
11535;SDS011;5824;49.336;8.652;2024-03-22T14:16:30;6.43;;;4.30;;
11535;SDS011;5824;49.336;8.652;2024-03-22T14:18:56;6.60;;;3.83;;
11535;SDS011;5824;49.336;8.652;2024-03-22T14:21:21;5.37;;;3.90;;
11535;SDS011;5824;49.336;8.652;2024-03-22T14:23:47;5.87;;;4.10;;
11535;SDS011;5824;49.336;8.652;2024-03-22T14:26:14;5.33;;;3.70;;
11535;SDS011;5824;49.336;8.652;2024-03-22T14:28:40;7.27;;;4.07;;
11535;SDS011;5824;49.336;8.652;2024-03-22T14:31:09;6.50;;;4.10;;
11535;SDS011;5824;49.336;8.652;2024-03-22T14:33:35;6.50;;;4.73;;
11535;SDS011;5824;49.336;8.652;2024-03-22T14:36:02;6.40;;;4.00;;
11535;SDS011;5824;49.336;8.652;2024-03-22T14:38:28;6.40;;;3.77;;
11535;SDS011;5824;49.336;8.652;2024-03-22T14:40:54;5.77;;;3.90;;
11535;SDS011;5824;49.336;8.652;2024-03-22T14:43:20;8.77;;;4.40;;
11535;SDS011;5824;49.336;8.652;2024-03-22T14:45:46;5.77;;;4.00;;